createdAt,value
2018-08-11T00:01:56.616Z,2.10
2018-08-11T00:04:00.227Z,2.20
2018-08-11T00:06:03.919Z,2.33
2018-08-11T00:08:07.492Z,2.00
2018-08-11T00:10:11.147Z,2.00
2018-08-11T00:12:14.662Z,2.30
2018-08-11T00:14:18.318Z,2.00
2018-08-11T00:16:21.958Z,2.07
2018-08-11T00:18:25.575Z,2.37
2018-08-11T00:20:30.246Z,2.20
2018-08-11T00:22:33.906Z,2.10
2018-08-11T00:24:37.527Z,2.37
2018-08-11T00:26:41.060Z,2.07
2018-08-11T00:28:44.588Z,2.07
2018-08-11T00:30:48.125Z,1.97
2018-08-11T00:32:51.709Z,1.80
2018-08-11T00:34:55.196Z,1.90
2018-08-11T00:36:58.817Z,2.20
2018-08-11T00:39:02.404Z,2.00
2018-08-11T00:41:06.193Z,2.50
2018-08-11T00:43:09.825Z,2.10
2018-08-11T00:45:14.527Z,2.33
2018-08-11T00:47:18.368Z,2.40
2018-08-11T00:49:21.951Z,1.90
2018-08-11T00:51:25.478Z,2.00
2018-08-11T00:53:29.034Z,2.17
2018-08-11T00:55:32.617Z,2.07
2018-08-11T00:57:36.330Z,2.30
2018-08-11T00:59:39.872Z,1.83
2018-08-11T01:01:43.403Z,1.90
2018-08-11T01:03:46.953Z,1.80
2018-08-11T01:05:50.971Z,2.23
2018-08-11T01:07:54.491Z,2.27
2018-08-11T01:09:58.008Z,2.00
2018-08-11T01:12:01.578Z,1.80
2018-08-11T01:14:05.125Z,1.80
2018-08-11T01:16:08.893Z,2.00
2018-08-11T01:18:12.467Z,2.13
2018-08-11T01:20:16.182Z,2.00
2018-08-11T01:22:19.755Z,1.90
2018-08-11T01:24:23.347Z,1.93
2018-08-11T01:26:27.008Z,1.70
2018-08-11T01:28:30.575Z,2.30
2018-08-11T01:30:34.079Z,2.27
2018-08-11T01:32:37.618Z,2.37
2018-08-11T01:34:41.111Z,2.30
2018-08-11T01:36:44.724Z,2.03
2018-08-11T01:38:48.490Z,2.60
2018-08-11T01:40:52.033Z,2.37
2018-08-11T01:42:55.548Z,2.23
2018-08-11T01:45:01.331Z,2.20
2018-08-11T01:47:04.913Z,2.10
2018-08-11T01:49:08.578Z,2.20
2018-08-11T01:51:12.051Z,2.27
2018-08-11T01:53:15.668Z,2.60
2018-08-11T01:55:19.515Z,2.30
2018-08-11T01:57:23.074Z,2.67
2018-08-11T01:59:26.588Z,2.00
2018-08-11T02:01:30.273Z,1.93
2018-08-11T02:03:33.951Z,2.10
2018-08-11T02:05:37.470Z,2.20
2018-08-11T02:07:42.116Z,2.50
2018-08-11T02:09:45.759Z,2.33
2018-08-11T02:11:49.334Z,2.03
2018-08-11T02:13:53.479Z,2.07
2018-08-11T02:15:57.026Z,2.10
2018-08-11T02:18:00.575Z,1.90
2018-08-11T02:20:05.004Z,2.50
2018-08-11T02:22:08.663Z,2.17
2018-08-11T02:24:12.335Z,2.57
2018-08-11T02:26:15.848Z,2.50
2018-08-11T02:28:19.340Z,2.10
2018-08-11T02:30:22.884Z,2.30
2018-08-11T02:32:26.508Z,2.37
2018-08-11T02:34:30.237Z,2.10
2018-08-11T02:36:33.718Z,2.20
2018-08-11T02:38:37.607Z,2.27
2018-08-11T02:40:41.260Z,2.10
2018-08-11T02:42:44.765Z,2.10
2018-08-11T02:44:48.363Z,2.20
2018-08-11T02:46:51.990Z,2.50
2018-08-11T02:48:55.616Z,2.50
2018-08-11T02:50:59.132Z,2.17
2018-08-11T02:53:02.707Z,2.60
2018-08-11T02:55:06.458Z,2.30
2018-08-11T02:57:10.002Z,2.30
2018-08-11T02:59:13.592Z,2.70
2018-08-11T03:01:17.108Z,2.50
2018-08-11T03:03:20.648Z,2.20
2018-08-11T03:05:24.223Z,2.73
2018-08-11T03:07:27.849Z,2.50
2018-08-11T03:09:31.428Z,2.53
2018-08-11T03:11:35.140Z,2.57
2018-08-11T03:13:38.696Z,2.50
2018-08-11T03:15:42.279Z,1.93
2018-08-11T03:17:45.836Z,2.80
2018-08-11T03:19:49.351Z,2.57
2018-08-11T03:21:52.849Z,2.47
2018-08-11T03:23:56.696Z,2.07
2018-08-11T03:26:00.297Z,2.40
2018-08-11T03:28:04.027Z,2.83
2018-08-11T03:30:07.907Z,2.40
2018-08-11T03:32:11.346Z,2.40
2018-08-11T03:34:14.898Z,2.70
2018-08-11T03:36:18.412Z,2.70
2018-08-11T03:38:22.008Z,2.63
2018-08-11T03:40:25.508Z,2.63
2018-08-11T03:42:29.170Z,2.87
2018-08-11T03:44:32.744Z,2.80
2018-08-11T03:46:36.342Z,2.60
2018-08-11T03:48:39.847Z,2.83
2018-08-11T03:50:43.411Z,2.53
2018-08-11T03:52:46.900Z,2.70
2018-08-11T03:54:50.472Z,2.27
2018-08-11T03:56:53.962Z,2.30
2018-08-11T03:59:00.334Z,3.00
2018-08-11T04:01:03.857Z,2.43
2018-08-11T04:03:07.364Z,2.37
2018-08-11T04:05:11.010Z,2.80
2018-08-11T04:07:17.412Z,2.83
2018-08-11T04:09:21.100Z,2.70
2018-08-11T04:11:24.600Z,2.97
2018-08-11T04:13:28.263Z,2.80
2018-08-11T04:15:31.907Z,2.80
2018-08-11T04:17:39.175Z,2.73
2018-08-11T04:19:42.707Z,3.30
2018-08-11T04:21:46.492Z,2.80
2018-08-11T04:23:49.993Z,2.43
2018-08-11T04:25:53.616Z,2.50
2018-08-11T04:27:58.107Z,2.33
2018-08-11T04:30:01.936Z,2.40
2018-08-11T04:32:05.451Z,2.60
2018-08-11T04:34:09.063Z,2.97
2018-08-11T04:36:12.590Z,2.80
2018-08-11T04:38:16.114Z,2.40
2018-08-11T04:40:19.644Z,2.13
2018-08-11T04:42:23.212Z,2.53
2018-08-11T04:44:26.727Z,2.90
2018-08-11T04:46:30.322Z,3.57
2018-08-11T04:48:33.855Z,2.70
2018-08-11T04:50:37.378Z,2.67
2018-08-11T04:52:40.858Z,2.80
2018-08-11T04:54:44.425Z,2.27
2018-08-11T04:56:48.027Z,2.73
2018-08-11T04:58:51.776Z,2.83
2018-08-11T05:00:55.354Z,3.00
2018-08-11T05:02:58.838Z,2.17
2018-08-11T05:05:02.466Z,3.03
2018-08-11T05:07:06.439Z,3.00
2018-08-11T05:09:10.660Z,3.37
2018-08-11T05:11:14.162Z,3.27
2018-08-11T05:13:17.684Z,3.03
2018-08-11T05:15:21.214Z,3.20
2018-08-11T05:17:24.709Z,3.43
2018-08-11T05:19:28.226Z,3.07
2018-08-11T05:21:31.976Z,2.70
2018-08-11T05:23:35.577Z,2.40
2018-08-11T05:25:39.115Z,2.60
2018-08-11T05:27:42.724Z,2.63
2018-08-11T05:29:46.318Z,2.73
2018-08-11T05:31:49.959Z,2.70
2018-08-11T05:33:53.912Z,2.43
2018-08-11T05:35:57.473Z,2.47
2018-08-11T05:38:01.051Z,3.03
2018-08-11T05:40:04.903Z,2.43
2018-08-11T05:42:08.528Z,2.17
2018-08-11T05:44:12.044Z,2.43
2018-08-11T05:46:15.564Z,2.53
2018-08-11T05:48:19.391Z,2.77
2018-08-11T05:50:22.900Z,2.50
2018-08-11T05:52:26.404Z,2.40
2018-08-11T05:54:29.934Z,2.40
2018-08-11T05:56:33.562Z,2.40
2018-08-11T05:58:37.170Z,2.33
2018-08-11T06:00:40.738Z,2.80
2018-08-11T06:02:44.379Z,2.40
2018-08-11T06:04:47.981Z,2.27
2018-08-11T06:06:51.459Z,2.30
2018-08-11T06:08:55.183Z,2.20
2018-08-11T06:10:58.888Z,2.20
2018-08-11T06:13:02.460Z,2.20
2018-08-11T06:15:06.695Z,2.70
2018-08-11T06:17:10.225Z,2.13
2018-08-11T06:19:13.733Z,1.90
2018-08-11T06:21:17.354Z,1.90
2018-08-11T06:23:21.083Z,1.50
2018-08-11T06:25:24.685Z,1.93
2018-08-11T06:27:28.447Z,1.80
2018-08-11T06:29:32.155Z,1.93
2018-08-11T06:31:36.050Z,1.60
2018-08-11T06:33:39.499Z,1.50
2018-08-11T06:35:43.099Z,1.33
2018-08-11T06:37:46.642Z,1.63
2018-08-11T06:39:51.545Z,1.20
2018-08-11T06:41:55.079Z,1.50
2018-08-11T06:43:58.711Z,1.50
2018-08-11T06:46:02.266Z,1.57
2018-08-11T06:48:06.066Z,1.23
2018-08-11T06:50:09.601Z,1.20
2018-08-11T06:52:13.320Z,1.10
2018-08-11T06:54:16.893Z,1.40
2018-08-11T06:56:20.446Z,1.37
2018-08-11T06:58:23.958Z,1.37
2018-08-11T07:00:27.544Z,1.40
2018-08-11T07:02:31.067Z,1.33
2018-08-11T07:04:34.611Z,1.20
2018-08-11T07:06:38.249Z,1.10
2018-08-11T07:08:41.660Z,1.10
2018-08-11T07:10:45.165Z,1.23
2018-08-11T07:12:48.682Z,1.23
2018-08-11T07:14:58.751Z,1.20
2018-08-11T07:17:02.279Z,1.27
2018-08-11T07:19:06.110Z,1.10
2018-08-11T07:21:09.763Z,1.23
2018-08-11T07:23:13.320Z,1.20
2018-08-11T07:25:16.894Z,1.30
2018-08-11T07:27:20.433Z,1.17
2018-08-11T07:29:23.936Z,1.20
2018-08-11T07:31:27.590Z,1.37
2018-08-11T07:33:31.215Z,1.30
2018-08-11T07:35:34.928Z,1.20
2018-08-11T07:37:38.567Z,1.10
2018-08-11T07:39:42.189Z,0.90
2018-08-11T07:41:45.867Z,1.03
2018-08-11T07:43:49.358Z,1.13
2018-08-11T07:45:52.897Z,1.20
2018-08-11T07:47:56.443Z,1.30
2018-08-11T07:50:00.029Z,1.33
2018-08-11T07:52:03.587Z,1.17
2018-08-11T07:54:07.218Z,1.70
2018-08-11T07:56:10.785Z,1.37
2018-08-11T07:58:14.347Z,1.40
2018-08-11T08:00:17.891Z,1.47
2018-08-11T08:02:21.433Z,1.27
2018-08-11T08:04:24.972Z,1.47
2018-08-11T08:06:28.523Z,1.40
2018-08-11T08:08:32.079Z,1.13
2018-08-11T08:10:35.602Z,1.40
2018-08-11T08:12:39.142Z,1.40
2018-08-11T08:14:42.655Z,1.37
2018-08-11T08:16:46.206Z,1.33
2018-08-11T08:18:49.781Z,1.30
2018-08-11T08:20:53.286Z,1.30
2018-08-11T08:22:56.911Z,1.27
2018-08-11T08:25:00.524Z,1.60
2018-08-11T08:27:04.146Z,1.60
2018-08-11T08:29:08.659Z,1.40
2018-08-11T08:31:12.198Z,1.13
2018-08-11T08:33:15.682Z,1.10
2018-08-11T08:35:19.248Z,1.33
2018-08-11T08:37:22.784Z,1.30
2018-08-11T08:39:26.391Z,1.20
2018-08-11T08:41:29.944Z,1.50
2018-08-11T08:43:33.447Z,1.43
2018-08-11T08:45:37.013Z,1.30
2018-08-11T08:47:40.516Z,1.40
2018-08-11T08:49:44.088Z,1.40
2018-08-11T08:51:47.604Z,1.27
2018-08-11T08:53:51.164Z,1.40
2018-08-11T08:55:54.676Z,1.17
2018-08-11T08:57:58.214Z,1.53
2018-08-11T09:00:01.957Z,1.30
2018-08-11T09:02:05.587Z,1.50
2018-08-11T09:04:09.134Z,1.17
2018-08-11T09:06:12.698Z,1.10
2018-08-11T09:08:16.306Z,1.47
2018-08-11T09:10:19.959Z,1.40
2018-08-11T09:12:23.844Z,1.50
2018-08-11T09:14:27.486Z,1.33
2018-08-11T09:16:31.107Z,1.47
2018-08-11T09:18:34.922Z,1.30
2018-08-11T09:20:40.686Z,1.30
2018-08-11T09:22:44.297Z,1.40
2018-08-11T09:24:47.819Z,1.30
2018-08-11T09:26:51.320Z,1.50
2018-08-11T09:28:54.935Z,1.30
2018-08-11T09:30:58.405Z,1.30
2018-08-11T09:33:01.932Z,1.40
2018-08-11T09:35:05.598Z,1.43
2018-08-11T09:37:09.154Z,1.50
2018-08-11T09:39:13.046Z,1.30
2018-08-11T09:41:16.605Z,1.27
2018-08-11T09:43:20.240Z,1.30
2018-08-11T09:45:23.820Z,1.20
2018-08-11T09:47:27.325Z,1.10
2018-08-11T09:49:31.669Z,1.30
2018-08-11T09:51:35.511Z,1.00
2018-08-11T09:53:39.177Z,1.50
2018-08-11T09:55:42.770Z,1.80
2018-08-11T09:57:46.399Z,1.20
2018-08-11T09:59:50.205Z,1.10
2018-08-11T10:01:59.294Z,1.37
2018-08-11T10:04:02.944Z,1.43
2018-08-11T10:06:06.574Z,1.30
2018-08-11T10:08:10.259Z,1.50
2018-08-11T10:10:13.896Z,1.20
2018-08-11T10:12:17.566Z,1.33
2018-08-11T10:14:21.309Z,1.40
2018-08-11T10:16:24.993Z,1.33
2018-08-11T10:18:28.896Z,1.27
2018-08-11T10:20:32.814Z,1.20
2018-08-11T10:22:36.592Z,1.20
2018-08-11T10:24:40.359Z,1.13
2018-08-11T10:26:44.045Z,1.20
2018-08-11T10:28:47.624Z,1.00
2018-08-11T10:30:51.266Z,1.50
2018-08-11T10:32:55.208Z,1.10
2018-08-11T10:34:58.778Z,1.90
2018-08-11T10:37:02.406Z,1.20
2018-08-11T10:39:09.503Z,1.20
2018-08-11T10:41:13.375Z,1.33
2018-08-11T10:43:17.010Z,1.27
2018-08-11T10:45:20.687Z,1.13
2018-08-11T10:47:24.972Z,1.20
2018-08-11T10:49:28.520Z,1.10
2018-08-11T10:51:32.211Z,1.30
2018-08-11T10:53:35.800Z,1.10
2018-08-11T10:55:39.370Z,1.20
2018-08-11T10:57:42.893Z,1.20
2018-08-11T10:59:46.508Z,1.30
2018-08-11T11:01:50.051Z,1.40
2018-08-11T11:03:53.871Z,1.30
2018-08-11T11:05:57.444Z,1.30
2018-08-11T11:08:01.049Z,1.30
2018-08-11T11:10:04.672Z,1.30
2018-08-11T11:12:08.370Z,1.20
2018-08-11T11:14:12.018Z,1.23
2018-08-11T11:16:15.676Z,1.20
2018-08-11T11:18:19.265Z,1.17
2018-08-11T11:20:22.803Z,0.90
2018-08-11T11:22:26.330Z,1.30
2018-08-11T11:24:29.851Z,1.37
2018-08-11T11:26:33.406Z,1.20
2018-08-11T11:28:36.920Z,0.83
2018-08-11T11:30:40.510Z,1.13
2018-08-11T11:32:44.022Z,1.07
2018-08-11T11:34:47.511Z,1.00
2018-08-11T11:36:51.087Z,1.17
2018-08-11T11:38:56.100Z,0.90
2018-08-11T11:40:59.756Z,1.20
2018-08-11T11:43:03.358Z,1.20
2018-08-11T11:45:06.936Z,1.00
2018-08-11T11:47:10.575Z,1.23
2018-08-11T11:49:14.114Z,1.00
2018-08-11T11:51:17.776Z,1.50
2018-08-11T11:53:21.389Z,1.40
2018-08-11T11:55:24.911Z,1.40
2018-08-11T11:57:28.441Z,1.07
2018-08-11T11:59:31.967Z,1.07
2018-08-11T12:01:35.493Z,1.10
2018-08-11T12:03:39.031Z,1.10
2018-08-11T12:05:42.713Z,1.13
2018-08-11T12:07:46.237Z,1.00
2018-08-11T12:09:49.879Z,1.37
2018-08-11T12:11:53.505Z,1.23
2018-08-11T12:13:57.027Z,1.30
2018-08-11T12:16:00.610Z,1.23
2018-08-11T12:18:04.261Z,1.00
2018-08-11T12:20:10.113Z,1.23
2018-08-11T12:22:13.807Z,1.00
2018-08-11T12:24:17.412Z,1.10
2018-08-11T12:26:20.999Z,1.00
2018-08-11T12:28:24.505Z,1.00
2018-08-11T12:30:28.026Z,1.07
2018-08-11T12:32:31.555Z,1.10
2018-08-11T12:34:35.082Z,1.40
2018-08-11T12:36:38.845Z,1.00
2018-08-11T12:38:42.339Z,1.03
2018-08-11T12:40:46.127Z,1.47
2018-08-11T12:42:49.699Z,1.10
2018-08-11T12:44:53.274Z,1.57
2018-08-11T12:46:56.910Z,1.50
2018-08-11T12:49:00.456Z,1.02
2018-08-11T12:51:04.045Z,1.02
2018-08-11T12:53:07.544Z,1.37
2018-08-11T12:55:11.085Z,1.30
2018-08-11T12:57:14.618Z,1.25
2018-08-11T12:59:18.180Z,1.10
2018-08-11T13:01:21.815Z,1.37
2018-08-11T13:03:25.312Z,1.50
2018-08-11T13:05:28.827Z,1.00
2018-08-11T13:07:32.507Z,1.00
2018-08-11T13:09:36.194Z,1.05
2018-08-11T13:11:40.065Z,1.10
2018-08-11T13:13:43.691Z,1.00
2018-08-11T13:15:47.227Z,1.00
2018-08-11T13:17:50.754Z,1.00
2018-08-11T13:19:54.289Z,1.10
2018-08-11T13:21:58.070Z,1.10
2018-08-11T13:24:01.616Z,1.13
2018-08-11T13:26:05.208Z,1.03
2018-08-11T13:28:08.808Z,1.30
2018-08-11T13:30:12.359Z,1.00
2018-08-11T13:32:15.902Z,1.30
2018-08-11T13:34:19.524Z,1.00
2018-08-11T13:36:23.248Z,1.27
2018-08-11T13:38:27.123Z,1.17
2018-08-11T13:40:30.815Z,1.00
2018-08-11T13:42:34.398Z,1.00
2018-08-11T13:44:37.898Z,1.03
2018-08-11T13:46:41.514Z,1.20
2018-08-11T13:48:45.061Z,0.90
2018-08-11T13:50:48.864Z,1.00
2018-08-11T13:52:52.415Z,1.10
2018-08-11T13:54:56.019Z,1.00
2018-08-11T13:56:59.608Z,1.00
2018-08-11T13:59:03.158Z,1.07
2018-08-11T14:01:06.978Z,1.30
2018-08-11T14:03:10.535Z,0.90
2018-08-11T14:05:14.045Z,1.10
2018-08-11T14:07:17.607Z,0.93
2018-08-11T14:09:21.121Z,1.00
2018-08-11T14:11:24.655Z,1.13
2018-08-11T14:13:28.139Z,1.00
2018-08-11T14:15:31.739Z,1.20
2018-08-11T14:17:35.519Z,0.80
2018-08-11T14:19:39.041Z,1.20
2018-08-11T14:21:42.641Z,1.02
2018-08-11T14:23:46.158Z,0.93
2018-08-11T14:25:49.727Z,1.30
2018-08-11T14:27:53.231Z,1.12
2018-08-11T14:29:56.755Z,0.90
2018-08-11T14:32:00.272Z,1.02
2018-08-11T14:34:03.892Z,1.10
2018-08-11T14:36:07.419Z,0.90
2018-08-11T14:38:10.924Z,0.90
2018-08-11T14:40:14.561Z,1.12
2018-08-11T14:42:18.096Z,1.00
2018-08-11T14:44:21.673Z,0.88
2018-08-11T14:46:25.191Z,0.90
2018-08-11T14:48:28.740Z,1.17
2018-08-11T14:50:32.421Z,1.00
2018-08-11T14:52:36.079Z,1.25
2018-08-11T14:54:39.599Z,1.10
2018-08-11T14:56:43.191Z,1.27
2018-08-11T14:58:46.940Z,1.05
2018-08-11T15:00:50.603Z,0.90
2018-08-11T15:02:54.136Z,1.10
2018-08-11T15:04:57.660Z,1.20
2018-08-11T15:07:01.247Z,1.10
2018-08-11T15:09:07.169Z,1.00
2018-08-11T15:11:10.739Z,0.88
2018-08-11T15:13:14.299Z,1.00
2018-08-11T15:15:17.814Z,1.00
2018-08-11T15:17:21.332Z,0.93
2018-08-11T15:19:24.888Z,1.20
2018-08-11T15:21:28.463Z,0.72
2018-08-11T15:23:31.987Z,0.93
2018-08-11T15:25:35.518Z,1.10
2018-08-11T15:27:39.493Z,1.20
2018-08-11T15:29:43.004Z,1.83
2018-08-11T15:31:46.703Z,0.80
2018-08-11T15:33:50.213Z,1.15
2018-08-11T15:35:53.805Z,1.15
2018-08-11T15:37:57.524Z,0.90
2018-08-11T15:40:01.097Z,1.00
2018-08-11T15:42:04.755Z,0.90
2018-08-11T15:44:08.351Z,0.90
2018-08-11T15:46:11.947Z,1.27
2018-08-11T15:48:15.452Z,1.00
2018-08-11T15:50:18.956Z,0.77
2018-08-11T15:52:22.528Z,1.00
2018-08-11T15:54:26.064Z,0.90
2018-08-11T15:56:29.751Z,1.10
2018-08-11T15:58:33.380Z,1.02
2018-08-11T16:00:43.780Z,1.17
2018-08-11T16:02:47.347Z,1.10
2018-08-11T16:04:50.850Z,1.02
2018-08-11T16:06:54.496Z,0.93
2018-08-11T16:08:58.126Z,1.07
2018-08-11T16:11:01.671Z,0.80
2018-08-11T16:13:05.255Z,1.00
2018-08-11T16:15:08.743Z,1.07
2018-08-11T16:17:12.585Z,0.98
2018-08-11T16:19:16.072Z,1.10
2018-08-11T16:21:19.587Z,0.95
2018-08-11T16:23:23.116Z,1.05
2018-08-11T16:25:26.641Z,0.88
2018-08-11T16:27:30.200Z,1.52
2018-08-11T16:29:33.765Z,1.00
2018-08-11T16:31:37.261Z,1.22
2018-08-11T16:33:40.865Z,1.25
2018-08-11T16:35:44.463Z,0.88
2018-08-11T16:37:48.129Z,0.90
2018-08-11T16:39:51.635Z,0.80
2018-08-11T16:41:55.230Z,1.40
2018-08-11T16:43:58.755Z,0.90
2018-08-11T16:46:02.315Z,1.07
2018-08-11T16:48:05.967Z,1.00
2018-08-11T16:50:09.624Z,1.10
2018-08-11T16:52:13.290Z,1.10
2018-08-11T16:54:16.849Z,1.15
2018-08-11T16:56:20.368Z,0.98
2018-08-11T16:58:24.131Z,1.07
2018-08-11T17:00:27.735Z,0.90
2018-08-11T17:02:31.315Z,1.00
2018-08-11T17:04:34.878Z,1.10
2018-08-11T17:06:38.410Z,1.00
2018-08-11T17:08:42.025Z,1.37
2018-08-11T17:10:45.704Z,1.00
2018-08-11T17:12:49.241Z,1.00
2018-08-11T17:14:52.838Z,1.05
2018-08-11T17:16:56.364Z,1.00
2018-08-11T17:18:59.895Z,0.90
2018-08-11T17:21:03.459Z,1.22
2018-08-11T17:23:06.995Z,1.17
2018-08-11T17:25:10.552Z,0.90
2018-08-11T17:27:14.208Z,0.93
2018-08-11T17:29:17.680Z,1.22
2018-08-11T17:31:21.178Z,1.05
2018-08-11T17:33:24.943Z,1.00
2018-08-11T17:35:28.470Z,1.00
2018-08-11T17:37:32.006Z,1.03
2018-08-11T17:39:35.614Z,1.03
2018-08-11T17:41:39.349Z,1.10
2018-08-11T17:43:42.894Z,1.17
2018-08-11T17:45:46.422Z,1.20
2018-08-11T17:47:50.051Z,1.13
2018-08-11T17:49:53.635Z,1.05
2018-08-11T17:51:57.227Z,1.15
2018-08-11T17:54:00.730Z,1.47
2018-08-11T17:56:04.427Z,1.80
2018-08-11T17:58:08.504Z,1.50
2018-08-11T18:00:12.122Z,1.70
2018-08-11T18:02:15.781Z,1.67
2018-08-11T18:04:19.442Z,2.07
2018-08-11T18:06:22.996Z,2.00
2018-08-11T18:08:26.554Z,1.67
2018-08-11T18:10:30.217Z,1.73
2018-08-11T18:12:34.018Z,1.60
2018-08-11T18:14:37.614Z,1.30
2018-08-11T18:16:41.270Z,1.50
2018-08-11T18:18:44.836Z,1.40
2018-08-11T18:20:48.497Z,1.13
2018-08-11T18:22:52.260Z,1.20
2018-08-11T18:24:55.806Z,1.07
2018-08-11T18:26:59.651Z,1.10
2018-08-11T18:29:03.302Z,1.30
2018-08-11T18:31:06.909Z,1.10
2018-08-11T18:33:10.508Z,1.23
2018-08-11T18:35:14.132Z,1.13
2018-08-11T18:37:17.688Z,1.20
2018-08-11T18:39:21.280Z,1.47
2018-08-11T18:41:24.835Z,1.07
2018-08-11T18:43:28.559Z,1.30
2018-08-11T18:45:32.361Z,1.60
2018-08-11T18:47:42.595Z,1.13
2018-08-11T18:49:46.295Z,1.27
2018-08-11T18:51:50.392Z,1.57
2018-08-11T18:53:54.056Z,1.47
2018-08-11T18:55:57.904Z,1.50
2018-08-11T18:58:01.491Z,1.23
2018-08-11T19:00:12.765Z,1.47
2018-08-11T19:02:16.366Z,1.20
2018-08-11T19:04:19.982Z,1.50
2018-08-11T19:06:23.721Z,1.47
2018-08-11T19:08:27.283Z,1.80
2018-08-11T19:10:30.878Z,1.30
2018-08-11T19:12:34.668Z,1.60
2018-08-11T19:14:38.331Z,1.40
2018-08-11T19:16:42.069Z,1.50
2018-08-11T19:18:45.862Z,1.50
2018-08-11T19:20:49.577Z,1.57
2018-08-11T19:22:53.260Z,1.50
2018-08-11T19:24:56.830Z,1.50
2018-08-11T19:27:00.418Z,1.50
2018-08-11T19:29:04.301Z,1.63
2018-08-11T19:31:07.924Z,1.47
2018-08-11T19:33:11.586Z,1.60
2018-08-11T19:35:15.208Z,1.33
2018-08-11T19:37:18.780Z,1.30
2018-08-11T19:39:22.388Z,1.60
2018-08-11T19:41:25.991Z,1.47
2018-08-11T19:43:29.700Z,1.50
2018-08-11T19:45:33.307Z,1.60
2018-08-11T19:47:37.064Z,1.60
2018-08-11T19:49:40.700Z,1.67
2018-08-11T19:51:44.370Z,1.90
2018-08-11T19:53:47.898Z,1.77
2018-08-11T19:55:51.586Z,1.63
2018-08-11T19:57:55.394Z,1.50
2018-08-11T19:59:59.200Z,1.93
2018-08-11T20:02:02.885Z,1.90
2018-08-11T20:04:06.669Z,1.73
2018-08-11T20:06:10.315Z,2.10
2018-08-11T20:08:14.010Z,2.20
2018-08-11T20:10:17.593Z,2.20
2018-08-11T20:12:21.378Z,2.50
2018-08-11T20:14:25.030Z,2.83
2018-08-11T20:16:28.604Z,2.73
2018-08-11T20:18:32.206Z,2.73
2018-08-11T20:20:35.879Z,2.63
2018-08-11T20:22:39.557Z,2.23
2018-08-11T20:24:43.156Z,2.33
2018-08-11T20:26:46.863Z,2.10
2018-08-11T20:28:50.469Z,2.40
2018-08-11T20:30:54.026Z,2.47
2018-08-11T20:32:57.589Z,2.23
2018-08-11T20:35:01.247Z,2.17
2018-08-11T20:37:04.975Z,2.40
2018-08-11T20:39:12.823Z,1.73
2018-08-11T20:41:16.468Z,2.00
2018-08-11T20:43:20.060Z,1.70
2018-08-11T20:45:23.730Z,1.50
2018-08-11T20:47:27.279Z,2.00
2018-08-11T20:49:31.059Z,2.10
2018-08-11T20:51:34.612Z,1.90
2018-08-11T20:53:38.162Z,1.50
2018-08-11T20:55:41.852Z,1.77
2018-08-11T20:57:45.483Z,1.30
2018-08-11T20:59:49.000Z,1.60
2018-08-11T21:01:52.842Z,1.73
2018-08-11T21:03:56.403Z,1.60
2018-08-11T21:05:59.996Z,1.90
2018-08-11T21:08:03.534Z,1.90
2018-08-11T21:10:09.143Z,1.90
2018-08-11T21:12:12.704Z,1.83
2018-08-11T21:14:16.386Z,2.03
2018-08-11T21:16:20.059Z,2.10
2018-08-11T21:18:23.680Z,2.07
2018-08-11T21:20:27.321Z,2.93
2018-08-11T21:22:30.915Z,1.73
2018-08-11T21:24:34.532Z,1.57
2018-08-11T21:26:38.299Z,2.00
2018-08-11T21:28:41.827Z,2.30
2018-08-11T21:30:45.424Z,2.10
2018-08-11T21:32:49.146Z,2.30
2018-08-11T21:34:52.754Z,2.30
2018-08-11T21:36:56.329Z,2.37
2018-08-11T21:38:59.849Z,3.10
2018-08-11T21:41:03.591Z,2.70
2018-08-11T21:43:07.176Z,3.03
2018-08-11T21:45:11.112Z,3.10
2018-08-11T21:47:14.684Z,4.83
2018-08-11T21:49:18.219Z,4.30
2018-08-11T21:51:21.931Z,3.83
2018-08-11T21:53:25.607Z,3.10
2018-08-11T21:55:29.119Z,3.20
2018-08-11T21:57:32.751Z,3.20
2018-08-11T21:59:36.400Z,2.30
2018-08-11T22:01:39.989Z,3.00
2018-08-11T22:03:44.596Z,2.67
2018-08-11T22:05:48.164Z,2.93
2018-08-11T22:07:51.816Z,2.50
2018-08-11T22:09:55.452Z,2.57
2018-08-11T22:11:59.135Z,2.90
2018-08-11T22:14:02.720Z,3.00
2018-08-11T22:16:07.116Z,2.40
2018-08-11T22:18:10.652Z,2.50
2018-08-11T22:20:14.299Z,2.40
2018-08-11T22:22:17.837Z,2.13
2018-08-11T22:24:21.435Z,2.10
2018-08-11T22:26:25.041Z,1.90
2018-08-11T22:28:28.638Z,2.37
2018-08-11T22:30:32.246Z,2.40
2018-08-11T22:32:36.325Z,2.53
2018-08-11T22:34:39.843Z,2.40
2018-08-11T22:36:43.468Z,2.50
2018-08-11T22:38:47.236Z,2.23
2018-08-11T22:40:50.890Z,2.30
2018-08-11T22:42:54.476Z,2.43
2018-08-11T22:44:58.156Z,1.93
2018-08-11T22:47:01.695Z,1.90
2018-08-11T22:49:05.580Z,1.80
2018-08-11T22:51:09.173Z,2.00
2018-08-11T22:53:12.911Z,1.80
2018-08-11T22:55:16.502Z,1.73
2018-08-11T22:57:20.284Z,1.80
2018-08-11T22:59:23.803Z,1.50
2018-08-11T23:01:27.316Z,2.20
2018-08-11T23:03:30.934Z,1.93
2018-08-11T23:05:35.484Z,2.10
2018-08-11T23:07:39.407Z,2.30
2018-08-11T23:09:43.061Z,1.97
2018-08-11T23:11:46.915Z,1.97
2018-08-11T23:13:50.483Z,1.83
2018-08-11T23:15:54.148Z,1.90
2018-08-11T23:17:57.695Z,2.33
2018-08-11T23:20:01.301Z,1.60
2018-08-11T23:22:05.186Z,1.50
2018-08-11T23:24:08.757Z,1.90
2018-08-11T23:26:12.258Z,2.20
2018-08-11T23:28:15.902Z,1.77
2018-08-11T23:30:19.426Z,1.63
2018-08-11T23:32:22.993Z,2.00
2018-08-11T23:34:26.808Z,2.13
2018-08-11T23:36:30.296Z,3.03
2018-08-11T23:38:33.835Z,3.07
2018-08-11T23:40:37.364Z,3.10
2018-08-11T23:42:41.015Z,2.30
2018-08-11T23:44:44.529Z,2.23
2018-08-11T23:46:48.227Z,1.80
2018-08-11T23:48:51.872Z,1.80
2018-08-11T23:50:55.401Z,2.00
2018-08-11T23:52:58.992Z,2.10
2018-08-11T23:55:02.617Z,1.90
2018-08-11T23:57:06.979Z,1.93
2018-08-11T23:59:10.600Z,2.00
